Location Norrisville, MD, US

ob CW6888 270120Z AUTO 36000G01KT 03/M10 A3038 RMK SLPNO 

2019.03.27 0120 UTC
Wind from the N (355 degrees) at Calm MPH ( KT) gusting to 1 MPH (1 KT)
Visibility    Mile(s)
Temperature 37.1 F (3 C)
Dew Point 13.2 F (-10 C)
Relative Humidity 37%
Pressure   30.384 in. Hg (1029 hPa)
Rain  0.00 in.
Daily Rain 0.01 in.

Station Name  Sola Virtus Observatory
Longitude, Latitude  -76.5447, 39.7025
Elevation 738
Station URL http://sola-virtus-observatory.org
Software Type Cumulus v1.9.4